createdAt,value
2023-04-25T00:00:00.374Z,99354.81
2023-04-25T00:05:03.370Z,99360.94
2023-04-25T00:10:06.042Z,99363.09
2023-04-25T00:15:08.120Z,99354.03
2023-04-25T00:20:10.696Z,99349.31
2023-04-25T00:25:12.289Z,99354.41
2023-04-25T00:30:14.471Z,99360.66
2023-04-25T00:35:16.106Z,99367.03
2023-04-25T00:40:17.756Z,99355.56
2023-04-25T00:45:19.853Z,99345.19
2023-04-25T00:50:21.906Z,99351.28
2023-04-25T00:55:23.587Z,99347.69
2023-04-25T01:00:25.197Z,99344.09
2023-04-25T01:05:26.765Z,99348.72
2023-04-25T01:10:28.553Z,99343.78
2023-04-25T01:15:30.271Z,99344.44
2023-04-25T01:20:33.658Z,99343.78
2023-04-25T01:25:35.620Z,99348.56
2023-04-25T01:30:37.381Z,99335.22
2023-04-25T01:35:41.307Z,99344.16
2023-04-25T01:40:43.100Z,99348.78
2023-04-25T01:45:44.889Z,99346.66
2023-04-25T01:50:49.383Z,99344.41
2023-04-25T01:55:51.023Z,99338.59
2023-04-25T02:00:55.912Z,99333.41
2023-04-25T02:06:01.210Z,99343.03
2023-04-25T02:11:04.621Z,99345.59
2023-04-25T02:16:14.257Z,99344.66
2023-04-25T02:21:16.252Z,99336.22
2023-04-25T02:26:18.856Z,99335.25
2023-04-25T02:31:20.639Z,99336.13
2023-04-25T02:36:22.247Z,99333.63
2023-04-25T02:41:24.172Z,99329.22
2023-04-25T02:46:38.379Z,99334.94
2023-04-25T02:51:41.106Z,99321.97
2023-04-25T02:56:43.172Z,99325.09
2023-04-25T03:01:49.562Z,99327.50
2023-04-25T03:06:51.725Z,99334.56
2023-04-25T03:11:55.924Z,99331.38
2023-04-25T03:16:58.572Z,99328.34
2023-04-25T03:22:00.267Z,99326.41
2023-04-25T03:27:02.359Z,99329.19
2023-04-25T03:32:04.221Z,99328.06
2023-04-25T03:37:05.873Z,99336.13
2023-04-25T03:42:11.979Z,99329.09
2023-04-25T03:47:13.583Z,99330.63
2023-04-25T03:52:15.314Z,99324.28
2023-04-25T03:57:17.127Z,99330.53
2023-04-25T04:02:19.264Z,99325.50
2023-04-25T04:07:21.690Z,99326.13
2023-04-25T04:12:27.739Z,99329.16
2023-04-25T04:17:29.535Z,99335.16
2023-04-25T04:22:32.276Z,99325.53
2023-04-25T04:27:39.077Z,99343.50
2023-04-25T04:32:54.874Z,99340.97
2023-04-25T04:37:57.287Z,99347.63
2023-04-25T04:43:01.727Z,99344.34
2023-04-25T04:48:09.584Z,99353.25
2023-04-25T04:53:33.363Z,99355.38
2023-04-25T04:58:53.414Z,99357.09
2023-04-25T05:04:18.374Z,99366.38
2023-04-25T05:09:38.390Z,99365.91
2023-04-25T05:14:39.948Z,99362.00
2023-04-25T05:20:05.174Z,99367.22
2023-04-25T05:25:13.906Z,99361.19
2023-04-25T05:30:40.799Z,99362.34
2023-04-25T05:36:06.044Z,99370.59
2023-04-25T05:41:08.348Z,99368.84
2023-04-25T05:46:27.834Z,99366.84
2023-04-25T05:51:57.653Z,99372.09
2023-04-25T05:57:25.314Z,99370.88
2023-04-25T06:02:28.173Z,99366.22
2023-04-25T06:07:33.367Z,99370.75
2023-04-25T06:12:35.069Z,99380.03
2023-04-25T06:17:38.816Z,99375.50
2023-04-25T06:22:41.403Z,99387.38
2023-04-25T06:27:43.061Z,99377.81
2023-04-25T06:32:44.954Z,99372.16
2023-04-25T06:37:46.612Z,99378.38
2023-04-25T06:42:48.309Z,99374.28
2023-04-25T06:48:21.314Z,99376.97
2023-04-25T06:53:23.202Z,99375.94
2023-04-25T06:58:31.324Z,99374.25
2023-04-25T07:03:44.634Z,99377.13
2023-04-25T07:08:52.075Z,99386.59
2023-04-25T07:13:54.342Z,99390.13
2023-04-25T07:18:56.429Z,99396.94
2023-04-25T07:23:58.610Z,99392.31
2023-04-25T07:29:06.324Z,99386.06
2023-04-25T07:34:09.019Z,99392.19
2023-04-25T07:39:14.072Z,99386.81
2023-04-25T07:44:16.242Z,99385.22
2023-04-25T07:49:18.196Z,99386.47
2023-04-25T07:54:20.287Z,99392.28
2023-04-25T07:59:29.757Z,99397.56
2023-04-25T08:04:33.495Z,99395.00
2023-04-25T08:09:38.807Z,99408.72
2023-04-25T08:14:45.335Z,99408.19
2023-04-25T08:19:47.074Z,99418.97
2023-04-25T08:24:58.145Z,99412.00
2023-04-25T08:29:59.968Z,99410.50
2023-04-25T08:35:01.634Z,99413.88
2023-04-25T08:40:07.972Z,99422.53
2023-04-25T08:45:18.845Z,99425.50
2023-04-25T08:50:23.142Z,99426.31
2023-04-25T08:55:27.295Z,99434.56
2023-04-25T09:00:32.740Z,99442.34
2023-04-25T09:05:35.346Z,99448.91
2023-04-25T09:10:37.350Z,99452.91
2023-04-25T09:15:53.172Z,99459.03
2023-04-25T09:21:14.898Z,99465.88
2023-04-25T09:26:21.475Z,99470.84
2023-04-25T09:31:25.598Z,99472.50
2023-04-25T09:36:31.679Z,99486.72
2023-04-25T09:41:55.641Z,99485.44
2023-04-25T09:46:58.071Z,99484.31
2023-04-25T09:52:02.035Z,99490.59
2023-04-25T09:57:16.945Z,99498.63
2023-04-25T10:02:21.222Z,99497.59
2023-04-25T10:07:27.636Z,99491.16
2023-04-25T10:12:29.840Z,99505.94
2023-04-25T10:17:32.611Z,99513.22
2023-04-25T10:22:37.870Z,99516.34
2023-04-25T10:27:40.507Z,99523.50
2023-04-25T10:32:51.481Z,99521.25
2023-04-25T10:38:13.494Z,99524.69
2023-04-25T10:43:43.538Z,99522.78
2023-04-25T10:48:55.997Z,99522.66
2023-04-25T10:54:04.367Z,99526.72
2023-04-25T10:59:16.713Z,99526.69
2023-04-25T11:04:22.473Z,99536.78
2023-04-25T11:09:25.347Z,99547.13
2023-04-25T11:14:27.983Z,99547.13
2023-04-25T11:19:30.014Z,99556.50
2023-04-25T11:24:33.133Z,99558.41
2023-04-25T11:29:35.686Z,99578.22
2023-04-25T11:34:37.372Z,99577.00
2023-04-25T11:39:39.107Z,99578.88
2023-04-25T11:44:41.679Z,99577.50
2023-04-25T11:49:43.273Z,99589.34
2023-04-25T11:54:45.602Z,99587.16
2023-04-25T11:59:47.446Z,99588.91
2023-04-25T12:04:49.309Z,99599.34
2023-04-25T12:09:53.666Z,99586.47
2023-04-25T12:14:56.173Z,99599.13
2023-04-25T12:19:57.860Z,99594.63
2023-04-25T12:24:59.501Z,99607.53
2023-04-25T12:30:01.470Z,99595.00
2023-04-25T12:35:03.158Z,99593.81
2023-04-25T12:40:05.330Z,99595.38
2023-04-25T12:45:07.505Z,99594.78
2023-04-25T12:50:09.604Z,99611.22
2023-04-25T12:55:11.213Z,99606.47
2023-04-25T13:00:15.758Z,99601.94
2023-04-25T13:05:17.356Z,99609.09
2023-04-25T13:10:19.051Z,99612.56
2023-04-25T13:15:21.044Z,99615.97
2023-04-25T13:20:23.456Z,99621.91
2023-04-25T13:25:25.811Z,99638.59
2023-04-25T13:30:27.381Z,99635.47
2023-04-25T13:35:29.034Z,99643.78
2023-04-25T13:40:30.654Z,99654.34
2023-04-25T13:45:33.571Z,99643.91
2023-04-25T13:50:35.364Z,99658.38
2023-04-25T13:55:39.998Z,99658.19
2023-04-25T14:00:44.115Z,99669.50
2023-04-25T14:05:45.816Z,99670.22
2023-04-25T14:10:47.400Z,99675.19
2023-04-25T14:15:49.094Z,99668.44
2023-04-25T14:20:50.727Z,99671.34
2023-04-25T14:25:52.320Z,99678.72
2023-04-25T14:30:53.968Z,99666.34
2023-04-25T14:35:55.900Z,99663.22
2023-04-25T14:40:57.555Z,99668.22
2023-04-25T14:45:59.116Z,99669.66
2023-04-25T14:51:01.333Z,99681.88
2023-04-25T14:56:02.950Z,99681.41
2023-04-25T15:01:04.658Z,99683.88
2023-04-25T15:06:07.232Z,99686.56
2023-04-25T15:11:08.824Z,99701.06
2023-04-25T15:16:11.190Z,99707.31
2023-04-25T15:21:12.796Z,99703.94
2023-04-25T15:26:14.422Z,99698.75
2023-04-25T15:31:16.001Z,99701.47
2023-04-25T15:36:19.328Z,99712.22
2023-04-25T15:41:21.195Z,99713.88
2023-04-25T15:46:23.744Z,99726.38
2023-04-25T15:51:25.551Z,99721.84
2023-04-25T15:56:27.222Z,99717.97
2023-04-25T16:01:31.068Z,99719.66
2023-04-25T16:06:33.072Z,99712.97
2023-04-25T16:11:34.761Z,99717.81
2023-04-25T16:16:36.401Z,99717.22
2023-04-25T16:21:38.379Z,99724.13
2023-04-25T16:26:43.648Z,99715.59
2023-04-25T16:31:47.155Z,99730.94
2023-04-25T16:36:49.581Z,99724.34
2023-04-25T16:41:52.018Z,99733.50
2023-04-25T16:46:53.765Z,99736.53
2023-04-25T16:51:55.915Z,99748.75
2023-04-25T16:56:58.209Z,99745.56
2023-04-25T17:01:59.946Z,99747.88
2023-04-25T17:07:01.654Z,99756.28
2023-04-25T17:12:04.010Z,99750.56
2023-04-25T17:17:05.772Z,99768.03
2023-04-25T17:22:07.470Z,99776.56
2023-04-25T17:27:09.178Z,99776.75
2023-04-25T17:32:10.935Z,99785.31
2023-04-25T17:37:16.127Z,99788.47
2023-04-25T17:42:17.707Z,99796.69
2023-04-25T17:47:19.286Z,99800.72
2023-04-25T17:52:20.905Z,99807.56
2023-04-25T17:57:24.305Z,99811.25
2023-04-25T18:02:27.066Z,99811.09
2023-04-25T18:07:28.806Z,99817.78
2023-04-25T18:12:30.450Z,99826.50
2023-04-25T18:17:33.901Z,99830.69
2023-04-25T18:22:37.059Z,99832.34
2023-04-25T18:27:39.709Z,99840.72
2023-04-25T18:32:42.147Z,99844.06
2023-04-25T18:37:44.313Z,99843.06
2023-04-25T18:42:45.991Z,99852.41
2023-04-25T18:47:47.981Z,99862.81
2023-04-25T18:52:49.713Z,99871.09
2023-04-25T18:57:51.763Z,99882.25
2023-04-25T19:02:55.984Z,99882.44
2023-04-25T19:07:58.721Z,99890.56
2023-04-25T19:13:00.624Z,99892.69
2023-04-25T19:18:02.796Z,99894.03
2023-04-25T19:23:05.325Z,99897.66
2023-04-25T19:28:08.639Z,99895.69
2023-04-25T19:33:10.960Z,99886.94
2023-04-25T19:38:14.945Z,99897.97
2023-04-25T19:43:16.540Z,99902.97
2023-04-25T19:48:18.296Z,99902.25
2023-04-25T19:53:20.102Z,99907.31
2023-04-25T19:58:21.807Z,99911.13
2023-04-25T20:03:24.196Z,99914.16
2023-04-25T20:08:26.295Z,99911.63
2023-04-25T20:13:28.273Z,99917.97
2023-04-25T20:18:29.874Z,99916.38
2023-04-25T20:23:31.443Z,99934.38
2023-04-25T20:28:33.144Z,99934.31
2023-04-25T20:33:37.654Z,99940.38
2023-04-25T20:38:39.230Z,99941.25
2023-04-25T20:43:42.232Z,99946.78
2023-04-25T20:48:43.856Z,99940.28
2023-04-25T20:53:45.489Z,99938.81
2023-04-25T20:58:47.363Z,99943.56
2023-04-25T21:03:50.474Z,99949.38
2023-04-25T21:08:52.679Z,99955.78
2023-04-25T21:13:54.599Z,99956.38
2023-04-25T21:18:56.309Z,99961.44
2023-04-25T21:23:57.938Z,99956.38
2023-04-25T21:28:59.596Z,99966.78
2023-04-25T21:34:01.321Z,99967.38
2023-04-25T21:39:03.088Z,99967.25
2023-04-25T21:44:04.825Z,99963.47
2023-04-25T21:49:06.968Z,99964.00
2023-04-25T21:54:08.750Z,99968.28
2023-04-25T21:59:10.416Z,99961.63
2023-04-25T22:04:13.743Z,99972.34
2023-04-25T22:09:16.345Z,99975.38
2023-04-25T22:14:17.927Z,99985.56
2023-04-25T22:19:19.531Z,99984.63
2023-04-25T22:24:21.620Z,99995.72
2023-04-25T22:29:23.765Z,99998.47
2023-04-25T22:34:25.399Z,100002.13
2023-04-25T22:39:26.954Z,100002.34
2023-04-25T22:44:28.553Z,100005.56
2023-04-25T22:49:30.310Z,100008.38
2023-04-25T22:54:32.077Z,100014.34
2023-04-25T22:59:36.172Z,100021.72
2023-04-25T23:04:37.791Z,100020.31
2023-04-25T23:09:41.052Z,100030.16
2023-04-25T23:14:42.795Z,100020.81
2023-04-25T23:19:45.243Z,100033.31
2023-04-25T23:24:46.819Z,100033.63
2023-04-25T23:29:54.808Z,100046.47
2023-04-25T23:34:56.833Z,100042.38
2023-04-25T23:39:58.564Z,100042.84
2023-04-25T23:45:01.405Z,100047.53
2023-04-25T23:50:03.617Z,100047.00
2023-04-25T23:55:05.701Z,100053.25
